Date,TemperatureHighF,TemperatureAvgF,TemperatureLowF,DewpointHighF,DewpointAvgF,DewpointLowF,HumidityHigh,HumidityAvg,HumidityLow,PressureMaxIn,PressureMinIn,WindSpeedMaxMPH,WindSpeedAvgMPH,GustSpeedMaxMPH,PrecipitationSumIn
2012-1-1,61.0,47.3,39.0,-99.9,-99.9,-99.9,0,0,100,0.00,40.00,14,7,0,0.00
2012-1-2,61.0,52.1,38.0,-99.9,-99.9,-99.9,0,0,100,0.00,40.00,11,6,0,0.00
2012-1-3,62.0,48.8,38.0,-99.9,-99.9,-99.9,0,0,100,0.00,40.00,4,2,0,0.00
2012-1-4,66.0,49.4,38.0,-99.9,-99.9,-99.9,0,0,100,0.00,40.00,3,2,0,0.00
2012-1-5,66.0,50.1,39.0,-99.9,-99.9,-99.9,0,0,100,0.00,40.00,11,4,0,0.00
2012-1-6,60.0,49.2,42.0,-99.9,-99.9,-99.9,0,0,100,0.00,40.00,8,5,0,0.00
2012-1-7,68.0,56.6,36.0,-99.9,-99.9,-99.9,0,0,100,0.00,40.00,15,8,0,0.00
2012-1-8,63.0,51.2,40.0,-99.9,-99.9,-99.9,0,0,100,0.00,40.00,11,4,0,0.00
2012-1-9,63.0,47.9,34.0,-99.9,-99.9,-99.9,0,0,100,0.00,40.00,9,4,0,0.00
2012-1-10,64.0,45.4,33.0,-99.9,-99.9,-99.9,0,0,100,0.00,40.00,8,3,0,0.00
2012-1-11,63.0,46.0,33.0,-99.9,-99.9,-99.9,0,0,100,0.00,40.00,5,2,0,0.00
2012-1-12,68.0,44.7,31.0,-99.9,-99.9,-99.9,0,0,100,0.00,40.00,10,4,0,0.00
2012-1-13,66.0,46.3,32.0,-99.9,-99.9,-99.9,0,0,100,0.00,40.00,12,4,0,0.00
2012-1-14,63.0,47.3,33.0,-99.9,-99.9,-99.9,0,0,100,0.00,40.00,7,4,0,0.00
2012-1-15,53.0,46.5,41.0,-99.9,-99.9,-99.9,0,0,100,0.00,40.00,17,11,0,0.00
2012-1-16,51.0,41.0,30.0,-99.9,-99.9,-99.9,0,0,100,0.00,40.00,7,4,0,0.00
2012-1-17,50.0,37.9,28.0,-99.9,-99.9,-99.9,0,0,100,0.00,40.00,7,3,0,0.00
2012-1-18,55.0,41.7,30.0,-99.9,-99.9,-99.9,0,0,100,0.00,40.00,8,4,0,0.00
2012-1-19,48.0,42.8,35.0,-99.9,-99.9,-99.9,0,0,100,0.00,40.00,4,2,0,0.00
2012-1-20,57.0,46.9,43.0,-99.9,-99.9,-99.9,0,0,100,0.00,40.00,10,3,0,0.00
2012-1-21,57.0,53.2,50.0,-99.9,-99.9,-99.9,0,0,100,0.00,40.00,18,14,0,0.00
2012-1-23,55.0,49.9,43.0,-99.9,-99.9,-99.9,0,0,100,0.00,40.00,9,5,0,0.00
2012-1-24,58.0,48.9,42.0,-99.9,-99.9,-99.9,0,0,100,0.00,40.00,9,5,0,0.00
2012-1-25,61.0,51.3,44.0,-99.9,-99.9,-99.9,0,0,100,0.00,40.00,10,3,0,0.00
2012-1-26,64.0,55.8,47.0,-99.9,-99.9,-99.9,0,0,100,0.00,40.00,17,8,0,0.00
2012-1-27,67.0,53.8,44.0,-99.9,-99.9,-99.9,0,0,100,0.00,40.00,6,3,0,0.00
2012-1-28,61.0,47.3,34.0,-99.9,-99.9,-99.9,0,0,100,0.00,40.00,17,6,0,0.00
2012-1-29,63.0,50.6,38.0,-99.9,-99.9,-99.9,0,0,100,0.00,40.00,7,3,0,0.00
2012-1-30,60.0,51.6,44.0,-99.9,-99.9,-99.9,0,0,100,0.00,40.00,10,4,0,0.00
2012-1-31,58.0,49.7,43.0,-99.9,-99.9,-99.9,0,0,100,0.00,40.00,14,8,0,0.00
2012-2-1,61.0,49.7,45.0,-99.9,-99.9,-99.9,0,0,100,0.00,40.00,13,6,0,0.00
2012-2-2,65.0,49.2,41.0,-99.9,-99.9,-99.9,0,0,100,0.00,40.00,7,3,0,0.00
2012-2-3,61.0,45.9,34.0,-99.9,-99.9,-99.9,0,0,100,0.00,40.00,12,4,0,0.00
2012-2-4,64.0,49.2,36.0,-99.9,-99.9,-99.9,0,0,100,0.00,40.00,10,4,0,0.00
2012-2-5,66.0,48.8,35.0,-99.9,-99.9,-99.9,0,0,100,0.00,40.00,10,4,0,0.00
2012-2-6,61.0,51.6,38.0,-99.9,-99.9,-99.9,0,0,100,0.00,40.00,12,6,0,0.00
2012-2-7,55.0,52.2,49.0,-99.9,-99.9,-99.9,0,0,100,0.00,40.00,10,5,0,0.00
2012-2-8,66.0,54.3,45.0,-99.9,-99.9,-99.9,0,0,100,0.00,40.00,6,3,0,0.00
2012-2-9,66.0,54.9,44.0,-99.9,-99.9,-99.9,0,0,100,0.00,40.00,9,5,0,0.00
2012-2-10,60.0,53.3,45.0,-99.9,-99.9,-99.9,0,0,100,0.00,40.00,11,7,0,0.00
2012-2-11,60.0,53.5,48.0,-99.9,-99.9,-99.9,0,0,100,0.00,40.00,12,6,0,0.00
2012-2-12,57.0,50.1,43.0,-99.9,-99.9,-99.9,0,0,100,0.00,40.00,17,9,0,0.00
2012-2-13,54.0,48.2,45.0,-99.9,-99.9,-99.9,0,0,100,0.00,40.00,13,5,0,0.00
2012-2-14,56.0,44.7,38.0,-99.9,-99.9,-99.9,0,0,100,0.00,40.00,11,6,0,0.00
2012-2-15,59.0,50.3,40.0,-99.9,-99.9,-99.9,0,0,100,0.00,40.00,13,7,0,0.00
2012-2-16,66.0,56.1,48.0,-99.9,-99.9,-99.9,0,0,100,0.00,40.00,9,6,0,0.00
2012-2-17,64.0,51.5,40.0,-99.9,-99.9,-99.9,0,0,100,0.00,40.00,14,6,0,0.00
2012-2-18,61.0,52.8,45.0,-99.9,-99.9,-99.9,0,0,100,0.00,40.00,13,8,0,0.00
2012-2-19,56.0,47.5,41.0,-99.9,-99.9,-99.9,0,0,100,0.00,40.00,14,8,0,0.00
2012-2-20,56.0,49.4,46.0,-99.9,-99.9,-99.9,0,0,100,0.00,40.00,7,3,0,0.00
2012-2-21,66.0,50.6,41.0,-99.9,-99.9,-99.9,0,0,100,0.00,40.00,4,3,0,0.00
2012-2-22,75.0,59.2,45.0,-99.9,-99.9,-99.9,0,0,100,0.00,40.00,6,3,0,0.00
2012-2-23,75.0,61.3,51.0,-99.9,-99.9,-99.9,0,0,100,0.00,40.00,13,6,0,0.00
2012-2-24,72.0,59.3,45.0,-99.9,-99.9,-99.9,0,0,100,0.00,40.00,18,7,0,0.00
2012-2-25,62.0,53.1,46.0,-99.9,-99.9,-99.9,0,0,100,0.00,40.00,12,5,0,0.00
2012-2-26,56.0,46.0,33.0,-99.9,-99.9,-99.9,0,0,100,0.00,40.00,12,6,0,0.00
2012-2-27,56.0,45.2,33.0,-99.9,-99.9,-99.9,0,0,100,0.00,40.00,10,6,0,0.00
2012-2-28,53.0,46.0,39.0,-99.9,-99.9,-99.9,0,0,100,0.00,40.00,14,9,0,0.00
2012-2-29,53.0,48.4,43.0,-99.9,-99.9,-99.9,0,0,100,0.00,40.00,15,10,0,0.00
2012-3-1,50.0,46.1,43.0,-99.9,-99.9,-99.9,0,0,100,0.00,40.00,13,9,0,0.00
2012-3-2,65.0,51.1,39.0,-99.9,-99.9,-99.9,0,0,100,0.00,40.00,6,4,0,0.00
2012-3-3,67.0,53.6,37.0,-99.9,-99.9,-99.9,0,0,100,0.00,40.00,14,6,0,0.00
2012-3-4,72.0,56.3,40.0,-99.9,-99.9,-99.9,0,0,100,0.00,40.00,8,3,0,0.00
2012-3-5,68.0,55.6,44.0,-99.9,-99.9,-99.9,0,0,100,0.00,40.00,21,11,0,0.00
2012-3-6,58.0,50.2,45.0,-99.9,-99.9,-99.9,0,0,100,0.00,40.00,21,14,0,0.00
2012-3-7,67.0,55.8,44.0,-99.9,-99.9,-99.9,0,0,100,0.00,40.00,8,4,0,0.00
2012-3-8,66.0,51.8,37.0,-99.9,-99.9,-99.9,0,0,100,0.00,40.00,12,5,0,0.00
2012-3-9,71.0,54.9,40.0,-99.9,-99.9,-99.9,0,0,100,0.00,40.00,12,5,0,0.00
2012-3-10,61.0,51.3,44.0,-99.9,-99.9,-99.9,0,0,100,0.00,40.00,21,15,0,0.00
2012-3-11,59.0,52.2,45.0,-99.9,-99.9,-99.9,0,0,100,0.00,40.00,15,10,0,0.00
2012-3-12,60.0,50.0,37.0,-99.9,-99.9,-99.9,0,0,100,0.00,40.00,16,7,0,0.00
2012-3-13,55.0,54.1,52.0,-99.9,-99.9,-99.9,0,0,100,0.00,40.00,13,10,0,0.00
2012-3-14,58.0,55.2,53.0,-99.9,-99.9,-99.9,0,0,100,0.00,40.00,7,5,0,0.00
2012-3-15,60.0,56.4,54.0,-99.9,-99.9,-99.9,0,0,100,0.00,40.00,12,6,0,0.00
2012-3-16,57.0,54.8,50.0,-99.9,-99.9,-99.9,0,0,100,0.00,40.00,16,9,0,0.00
2012-3-17,52.0,46.0,39.0,-99.9,-99.9,-99.9,0,0,100,0.00,40.00,14,6,0,0.00
2012-3-18,53.0,46.0,40.0,-99.9,-99.9,-99.9,0,0,100,0.00,40.00,24,15,0,0.00
2012-3-19,55.0,46.1,35.0,-99.9,-99.9,-99.9,0,0,100,0.00,40.00,9,4,0,0.00
2012-3-20,65.0,54.4,47.0,-99.9,-99.9,-99.9,0,0,100,0.00,40.00,5,3,0,0.00
2012-3-21,69.0,56.4,44.0,-99.9,-99.9,-99.9,0,0,100,0.00,40.00,12,4,0,0.00
2012-3-22,60.0,53.7,45.0,-99.9,-99.9,-99.9,0,0,100,0.00,40.00,19,10,0,0.00
2012-3-23,59.0,47.7,38.0,-99.9,-99.9,-99.9,0,0,100,0.00,40.00,13,6,0,0.00
2012-3-24,52.0,47.0,44.0,-99.9,-99.9,-99.9,0,0,100,0.00,40.00,9,5,0,0.00
2012-3-25,57.0,48.6,42.0,-99.9,-99.9,-99.9,0,0,100,0.00,40.00,9,5,0,0.00
2012-3-26,57.0,48.2,40.0,-99.9,-99.9,-99.9,0,0,100,0.00,40.00,9,5,0,0.00
2012-3-27,57.0,52.1,48.0,-99.9,-99.9,-99.9,0,0,100,0.00,40.00,13,6,0,0.00
2012-3-28,64.0,57.0,52.0,-99.9,-99.9,-99.9,0,0,100,0.00,40.00,13,7,0,0.00
2012-3-29,61.0,54.4,47.0,-99.9,-99.9,-99.9,0,0,100,0.00,40.00,12,6,0,0.00
2012-3-30,63.0,57.3,54.0,-99.9,-99.9,-99.9,0,0,100,0.00,40.00,14,6,0,0.00
2012-3-31,59.0,53.7,48.0,-99.9,-99.9,-99.9,0,0,100,0.00,40.00,24,13,0,0.00
2012-4-1,61.0,52.8,45.0,-99.9,-99.9,-99.9,0,0,100,0.00,40.00,17,10,0,0.00
2012-4-2,64.0,52.5,41.0,-99.9,-99.9,-99.9,0,0,100,0.00,40.00,14,6,0,0.00
2012-4-3,64.0,54.0,47.0,-99.9,-99.9,-99.9,0,0,100,0.00,40.00,17,13,0,0.00
2012-4-4,60.0,50.0,39.0,-99.9,-99.9,-99.9,0,0,100,0.00,40.00,20,11,0,0.00
2012-4-5,56.0,44.1,36.0,-99.9,-99.9,-99.9,0,0,100,0.00,40.00,17,7,0,0.00
2012-4-6,61.0,47.9,36.0,-99.9,-99.9,-99.9,0,0,100,0.00,40.00,6,4,0,0.00
2012-4-7,66.0,53.3,37.0,-99.9,-99.9,-99.9,0,0,100,0.00,40.00,10,4,0,0.00
2012-4-8,69.0,55.0,42.0,-99.9,-99.9,-99.9,0,0,100,0.00,40.00,15,6,0,0.00
2012-4-9,71.0,57.1,44.0,-99.9,-99.9,-99.9,0,0,100,0.00,40.00,16,6,0,0.00
2012-4-10,56.0,53.3,51.0,-99.9,-99.9,-99.9,0,0,100,0.00,40.00,7,4,0,0.00
2012-4-11,59.0,54.0,49.0,-99.9,-99.9,-99.9,0,0,100,0.00,40.00,16,10,0,0.00
2012-4-12,59.0,53.3,47.0,-99.9,-99.9,-99.9,0,0,100,0.00,40.00,13,8,0,0.00
2012-4-13,57.0,50.6,45.0,-99.9,-99.9,-99.9,0,0,100,0.00,40.00,22,9,0,0.00
2012-4-14,65.0,50.9,43.0,-99.9,-99.9,-99.9,0,0,100,0.00,40.00,13,8,0,0.00
2012-4-15,66.0,56.2,49.0,-99.9,-99.9,-99.9,0,0,100,0.00,40.00,14,11,0,0.00
2012-4-16,67.0,56.4,48.0,-99.9,-99.9,-99.9,0,0,100,0.00,40.00,18,14,0,0.00
2012-4-17,66.0,56.5,51.0,-99.9,-99.9,-99.9,0,0,100,0.00,40.00,18,12,0,0.00
2012-4-18,69.0,58.1,50.0,-99.9,-99.9,-99.9,0,0,100,0.00,40.00,24,15,0,0.00
2012-4-19,76.0,64.1,54.0,-99.9,-99.9,-99.9,0,0,100,0.00,40.00,18,9,0,0.00
2012-4-20,85.0,70.8,57.0,-99.9,-99.9,-99.9,0,0,100,0.00,40.00,10,5,0,0.00
2012-4-21,87.0,73.7,58.0,-99.9,-99.9,-99.9,0,0,100,0.00,40.00,8,4,0,0.00
2012-4-22,79.0,67.4,56.0,-99.9,-99.9,-99.9,0,0,100,0.00,40.00,20,11,0,0.00
2012-4-23,65.0,59.5,54.0,-99.9,-99.9,-99.9,0,0,100,0.00,40.00,21,17,0,0.00
2012-4-24,71.0,62.4,57.0,-99.9,-99.9,-99.9,0,0,100,0.00,40.00,14,8,0,0.00
2012-4-25,71.0,62.1,57.0,-99.9,-99.9,-99.9,0,0,100,0.00,40.00,13,6,0,0.00
2012-4-26,62.0,57.0,51.0,-99.9,-99.9,-99.9,0,0,100,0.00,40.00,19,13,0,0.00
2012-4-27,69.0,52.1,43.0,-99.9,-99.9,-99.9,0,0,100,0.00,40.00,9,5,0,0.00
2012-4-30,76.0,67.9,58.0,-99.9,-99.9,-99.9,0,0,100,0.00,40.00,24,16,0,0.00
2012-5-1,68.0,57.7,49.0,-99.9,-99.9,-99.9,0,0,100,0.00,40.00,19,14,0,0.00
2012-5-2,66.0,54.8,47.0,-99.9,-99.9,-99.9,0,0,100,0.00,40.00,23,14,0,0.00
2012-5-3,61.0,55.6,50.0,-99.9,-99.9,-99.9,0,0,100,0.00,40.00,17,11,0,0.00
2012-5-4,67.0,58.0,51.0,-99.9,-99.9,-99.9,0,0,100,0.00,40.00,21,13,0,0.00
2012-5-5,79.0,62.0,51.0,-99.9,-99.9,-99.9,0,0,100,0.00,40.00,12,7,0,0.00
2012-5-6,84.0,73.8,63.0,-99.9,-99.9,-99.9,0,0,100,0.00,40.00,10,6,0,0.00
2012-5-7,86.0,71.1,50.0,-99.9,-99.9,-99.9,0,0,100,0.00,40.00,15,5,0,0.00
2012-5-8,86.0,68.2,53.0,-99.9,-99.9,-99.9,0,0,100,0.00,40.00,14,7,0,0.00
2012-5-9,79.0,63.5,55.0,-99.9,-99.9,-99.9,0,0,100,0.00,40.00,17,12,0,0.00
2012-5-10,81.0,67.5,52.0,-99.9,-99.9,-99.9,0,0,100,0.00,40.00,21,10,0,0.00
2012-5-11,86.0,67.8,51.0,-99.9,-99.9,-99.9,0,0,100,0.00,40.00,16,6,0,0.00
2012-5-12,83.0,62.0,57.0,-99.9,-99.9,-99.9,0,0,100,0.00,40.00,16,11,0,0.00
2012-5-13,68.0,58.8,50.0,-99.9,-99.9,-99.9,0,0,100,0.00,40.00,20,18,0,0.00
2012-5-14,69.0,61.2,53.0,-99.9,-99.9,-99.9,0,0,100,0.00,40.00,15,10,0,0.00
2012-5-15,71.0,59.8,51.0,-99.9,-99.9,-99.9,0,0,100,0.00,40.00,18,13,0,0.00
2012-5-16,71.0,58.9,50.0,-99.9,-99.9,-99.9,0,0,100,0.00,40.00,21,15,0,0.00
2012-5-17,66.0,56.6,51.0,-99.9,-99.9,-99.9,0,0,100,0.00,40.00,22,17,0,0.00
2012-5-18,78.0,64.4,53.0,-99.9,-99.9,-99.9,0,0,100,0.00,40.00,19,14,0,0.00
2012-5-19,80.0,63.2,52.0,-99.9,-99.9,-99.9,0,0,100,0.00,40.00,16,12,0,0.00
2012-5-20,84.0,68.7,56.0,-99.9,-99.9,-99.9,0,0,100,0.00,40.00,19,11,0,0.00
2012-5-21,73.0,63.5,53.0,-99.9,-99.9,-99.9,0,0,100,0.00,40.00,27,19,0,0.00
2012-5-22,76.0,64.3,55.0,-99.9,-99.9,-99.9,0,0,100,0.00,40.00,26,17,0,0.00
2012-5-23,77.0,64.2,53.0,-99.9,-99.9,-99.9,0,0,100,0.00,40.00,20,13,0,0.00
2012-5-24,73.0,62.7,53.0,-99.9,-99.9,-99.9,0,0,100,0.00,40.00,24,13,0,0.00
2012-5-25,64.0,56.2,49.0,-99.9,-99.9,-99.9,0,0,100,0.00,40.00,19,11,0,0.00
2012-5-26,68.0,59.0,52.0,-99.9,-99.9,-99.9,0,0,100,0.00,40.00,14,11,0,0.00
2012-5-27,70.0,59.0,48.0,-99.9,-99.9,-99.9,0,0,100,0.00,40.00,19,11,0,0.00
2012-5-28,67.0,58.8,51.0,-99.9,-99.9,-99.9,0,0,100,0.00,40.00,16,14,0,0.00
2012-5-29,74.0,60.6,49.0,-99.9,-99.9,-99.9,0,0,100,0.00,40.00,16,11,0,0.00
2012-5-30,83.0,65.6,53.0,-99.9,-99.9,-99.9,0,0,100,0.00,40.00,18,13,0,0.00
2012-5-31,87.0,68.6,54.0,-99.9,-99.9,-99.9,0,0,100,0.00,40.00,18,12,0,0.00
2012-6-1,87.0,70.6,60.0,-99.9,-99.9,-99.9,0,0,100,0.00,40.00,19,13,0,0.00
2012-6-2,78.0,63.8,57.0,-99.9,-99.9,-99.9,0,0,100,0.00,40.00,27,22,0,0.00
2012-6-3,76.0,64.4,53.0,-99.9,-99.9,-99.9,0,0,100,0.00,40.00,25,16,0,0.00
2012-6-4,65.0,59.4,52.0,-99.9,-99.9,-99.9,0,0,100,0.00,40.00,23,15,0,0.00
2012-6-5,68.0,57.9,49.0,-99.9,-99.9,-99.9,0,0,100,0.00,40.00,16,10,0,0.00
2012-6-6,74.0,63.1,51.0,-99.9,-99.9,-99.9,0,0,100,0.00,40.00,18,11,0,0.00
2012-6-7,77.0,64.8,53.0,-99.9,-99.9,-99.9,0,0,100,0.00,40.00,26,17,0,0.00
2012-6-8,74.0,62.3,54.0,-99.9,-99.9,-99.9,0,0,100,0.00,40.00,19,15,0,0.00
2012-6-9,83.0,66.8,49.0,-99.9,-99.9,-99.9,0,0,100,0.00,40.00,15,7,0,0.00
2012-6-10,90.0,77.1,58.0,-99.9,-99.9,-99.9,0,0,100,0.00,40.00,12,6,0,0.00
2012-6-11,84.0,71.0,59.0,-99.9,-99.9,-99.9,0,0,100,0.00,40.00,11,5,0,0.00
2012-6-12,72.0,63.1,59.0,-99.9,-99.9,-99.9,0,0,100,0.00,40.00,18,12,0,0.00
2012-6-13,80.0,70.1,56.0,-99.9,-99.9,-99.9,0,0,100,0.00,40.00,19,16,0,0.00
2012-6-14,76.0,60.9,55.0,-99.9,-99.9,-99.9,0,0,100,0.00,40.00,17,14,0,0.00
2012-6-17,80.0,80.0,80.0,-99.9,-99.9,-99.9,0,0,100,0.00,40.00,5,5,0,0.00
2012-6-18,58.0,58.0,58.0,-99.9,-99.9,-99.9,0,0,100,0.00,40.00,15,15,0,0.00
2012-6-20,75.0,75.0,75.0,-99.9,-99.9,-99.9,0,0,100,0.00,40.00,6,6,0,0.00
2012-6-23,56.0,55.3,55.0,-99.9,-99.9,-99.9,0,0,100,0.00,40.00,11,10,0,0.00
2012-6-24,59.0,57.0,55.0,-99.9,-99.9,-99.9,0,0,100,0.00,40.00,15,13,0,0.00
2012-6-25,69.0,59.8,53.0,-99.9,-99.9,-99.9,0,0,100,0.00,40.00,14,13,0,0.00
2012-6-26,79.0,67.8,55.0,-99.9,-99.9,-99.9,0,0,100,0.00,40.00,11,7,0,0.00
2012-6-27,61.0,60.0,59.0,-99.9,-99.9,-99.9,0,0,100,0.00,40.00,7,7,0,0.00
2012-6-28,58.0,58.0,58.0,-99.9,-99.9,-99.9,0,0,100,0.00,40.00,9,9,0,0.00
2012-6-29,58.0,58.0,58.0,-99.9,-99.9,-99.9,0,0,100,0.00,40.00,12,12,0,0.00
2012-6-30,79.0,72.8,65.0,-99.9,-99.9,-99.9,0,0,100,0.00,40.00,23,18,0,0.00
2012-7-1,76.0,67.6,62.0,-99.9,-99.9,-99.9,0,0,100,0.00,40.00,15,13,0,0.00
2012-7-2,76.0,67.7,59.0,-99.9,-99.9,-99.9,0,0,100,0.00,40.00,20,15,0,0.00
2012-7-3,73.0,60.3,56.0,-99.9,-99.9,-99.9,0,0,100,0.00,40.00,17,14,0,0.00
2012-7-4,74.0,65.7,58.0,-99.9,-99.9,-99.9,0,0,100,0.00,40.00,16,14,0,0.00
2012-7-5,69.0,62.0,55.0,-99.9,-99.9,-99.9,0,0,100,0.00,40.00,18,15,0,0.00
2012-7-6,70.0,58.8,54.0,-99.9,-99.9,-99.9,0,0,100,0.00,40.00,15,13,0,0.00
2012-7-7,83.0,73.0,63.0,-99.9,-99.9,-99.9,0,0,100,0.00,40.00,17,11,0,0.00
2012-7-8,79.0,67.0,57.0,-99.9,-99.9,-99.9,0,0,100,0.00,40.00,19,18,0,0.00
2012-7-9,81.0,73.6,59.0,-99.9,-99.9,-99.9,0,0,100,0.00,40.00,19,16,0,0.00
2012-7-10,87.0,70.3,57.0,-99.9,-99.9,-99.9,0,0,100,0.00,40.00,12,10,0,0.00
2012-7-11,63.0,63.0,63.0,-99.9,-99.9,-99.9,0,0,100,0.00,40.00,11,11,0,0.00
2012-7-12,61.0,61.0,61.0,-99.9,-99.9,-99.9,0,0,100,0.00,40.00,12,12,0,0.00
2012-7-13,71.0,62.0,57.0,-99.9,-99.9,-99.9,0,0,100,0.00,40.00,20,17,0,0.00
2012-7-14,75.0,65.5,56.0,-99.9,-99.9,-99.9,0,0,100,0.00,40.00,17,16,0,0.00
2012-7-16,58.0,57.5,57.0,-99.9,-99.9,-99.9,0,0,100,0.00,40.00,19,18,0,0.00
2012-7-17,67.0,61.9,58.0,-99.9,-99.9,-99.9,0,0,100,0.00,40.00,15,10,0,0.00
2012-7-18,73.0,64.6,56.0,-99.9,-99.9,-99.9,0,0,100,0.00,40.00,15,10,0,0.00
2012-7-19,77.0,77.0,77.0,-99.9,-99.9,-99.9,0,0,100,0.00,40.00,16,16,0,0.00
2012-7-20,87.0,79.2,64.0,-99.9,-99.9,-99.9,0,0,100,0.00,40.00,15,8,0,0.00
2012-7-21,80.0,75.3,69.0,-99.9,-99.9,-99.9,0,0,100,0.00,40.00,10,9,0,0.00
2012-7-22,84.0,75.5,67.0,-99.9,-99.9,-99.9,0,0,100,0.00,40.00,18,16,0,0.00
2012-7-23,70.0,65.0,60.0,-99.9,-99.9,-99.9,0,0,100,0.00,40.00,19,17,0,0.00
2012-7-24,79.0,79.0,79.0,-99.9,-99.9,-99.9,0,0,100,0.00,40.00,17,17,0,0.00
2012-7-25,58.0,58.0,58.0,-99.9,-99.9,-99.9,0,0,100,0.00,40.00,13,13,0,0.00
2012-7-28,80.0,79.0,78.0,-99.9,-99.9,-99.9,0,0,100,0.00,40.00,15,15,0,0.00
2012-7-31,81.0,81.0,81.0,-99.9,-99.9,-99.9,0,0,100,0.00,40.00,12,12,0,0.00
2012-8-1,86.0,69.7,57.0,-99.9,-99.9,-99.9,0,0,100,0.00,40.00,15,13,0,0.00
2012-8-2,87.0,67.7,57.0,-99.9,-99.9,-99.9,0,0,100,0.00,40.00,16,13,0,0.00
2012-8-3,79.0,65.8,55.0,-99.9,-99.9,-99.9,0,0,100,0.00,40.00,21,16,0,0.00
2012-8-4,65.0,58.7,55.0,-99.9,-99.9,-99.9,0,0,100,0.00,40.00,19,19,0,0.00
2012-8-5,76.0,64.7,59.0,-99.9,-99.9,-99.9,0,0,100,0.00,40.00,19,16,0,0.00
2012-8-6,77.0,63.7,57.0,-99.9,-99.9,-99.9,0,0,100,0.00,40.00,18,14,0,0.00
2012-8-7,70.0,64.3,61.0,-99.9,-99.9,-99.9,0,0,100,0.00,40.00,15,14,0,0.00
2012-8-8,93.0,78.2,58.0,-99.9,-99.9,-99.9,0,0,100,0.00,40.00,13,11,0,0.00
2012-8-9,96.0,73.5,61.0,-99.9,-99.9,-99.9,0,0,100,0.00,40.00,13,9,0,0.00
2012-8-10,64.0,62.8,62.0,-99.9,-99.9,-99.9,0,0,100,0.00,40.00,10,9,0,0.00
2012-8-14,69.0,67.5,66.0,-99.9,-99.9,-99.9,0,0,100,0.00,40.00,15,13,0,0.00
2012-8-16,83.0,68.8,57.0,-99.9,-99.9,-99.9,0,0,100,0.00,40.00,21,18,0,0.00
2012-8-17,54.0,54.0,54.0,-99.9,-99.9,-99.9,0,0,100,0.00,40.00,20,20,0,0.00
2012-8-18,84.0,74.2,62.0,-99.9,-99.9,-99.9,0,0,100,0.00,40.00,19,18,0,0.00
2012-8-19,77.0,70.8,62.0,-99.9,-99.9,-99.9,0,0,100,0.00,40.00,21,19,0,0.00
2012-8-20,57.0,57.0,57.0,-99.9,-99.9,-99.9,0,0,100,0.00,40.00,15,15,0,0.00
2012-8-21,56.0,56.0,56.0,-99.9,-99.9,-99.9,0,0,100,0.00,40.00,22,22,0,0.00
2012-8-23,64.0,64.0,64.0,-99.9,-99.9,-99.9,0,0,100,0.00,40.00,14,14,0,0.00
2012-8-24,59.0,56.1,55.0,-99.9,-99.9,-99.9,0,0,100,0.00,40.00,16,13,0,0.00
2012-8-25,69.0,58.0,52.0,-99.9,-99.9,-99.9,0,0,100,0.00,40.00,17,16,0,0.00
2012-8-29,63.0,63.0,63.0,-99.9,-99.9,-99.9,0,0,100,0.00,40.00,11,11,0,0.00
2012-8-31,67.0,58.4,56.0,-99.9,-99.9,-99.9,0,0,100,0.00,40.00,19,13,0,0.00
2012-9-1,67.0,60.5,56.0,-99.9,-99.9,-99.9,0,0,100,0.00,40.00,10,9,0,0.00
2012-9-2,81.0,70.7,57.0,-99.9,-99.9,-99.9,0,0,100,0.00,40.00,9,8,0,0.00
2012-9-3,65.0,62.5,60.0,-99.9,-99.9,-99.9,0,0,100,0.00,40.00,11,10,0,0.00
2012-9-4,85.0,74.0,63.0,-99.9,-99.9,-99.9,0,0,100,0.00,40.00,13,12,0,0.00
2012-9-5,70.0,58.6,53.0,-99.9,-99.9,-99.9,0,0,100,0.00,40.00,15,12,0,0.00
2012-9-6,58.0,56.0,54.0,-99.9,-99.9,-99.9,0,0,100,0.00,40.00,12,12,0,0.00
2012-9-7,54.0,54.0,54.0,-99.9,-99.9,-99.9,0,0,100,0.00,40.00,9,9,0,0.00
2012-9-8,78.0,67.9,59.0,-99.9,-99.9,-99.9,0,0,100,0.00,40.00,19,15,0,0.00
2012-9-9,78.0,69.5,61.0,-99.9,-99.9,-99.9,0,0,100,0.00,40.00,17,16,0,0.00
2012-9-10,62.0,62.0,62.0,-99.9,-99.9,-99.9,0,0,100,0.00,40.00,8,8,0,0.00
2012-9-11,80.0,77.5,75.0,-99.9,-99.9,-99.9,0,0,100,0.00,40.00,11,10,0,0.00
2012-9-12,80.0,67.9,57.0,-99.9,-99.9,-99.9,0,0,100,0.00,40.00,14,12,0,0.00
2012-9-13,81.0,66.6,61.0,-99.9,-99.9,-99.9,0,0,100,0.00,40.00,11,9,0,0.00
2012-9-14,80.0,62.8,55.0,-99.9,-99.9,-99.9,0,0,100,0.00,40.00,16,14,0,0.00
2012-9-15,76.0,61.6,51.0,-99.9,-99.9,-99.9,0,0,100,0.00,40.00,19,14,0,0.00
2012-9-16,82.0,68.7,58.0,-99.9,-99.9,-99.9,0,0,100,0.00,40.00,12,11,0,0.00
2012-9-17,74.0,63.1,54.0,-99.9,-99.9,-99.9,0,0,100,0.00,40.00,20,16,0,0.00
2012-9-18,75.0,57.9,50.0,-99.9,-99.9,-99.9,0,0,100,0.00,40.00,17,15,0,0.00
2012-9-19,73.0,60.9,53.0,-99.9,-99.9,-99.9,0,0,100,0.00,40.00,16,15,0,0.00
2012-9-20,77.0,60.5,52.0,-99.9,-99.9,-99.9,0,0,100,0.00,40.00,17,13,0,0.00
2012-9-21,81.0,65.6,58.0,-99.9,-99.9,-99.9,0,0,100,0.00,40.00,15,11,0,0.00
2012-9-22,89.0,72.7,55.0,-99.9,-99.9,-99.9,0,0,100,0.00,40.00,11,5,0,0.00
2012-9-23,82.0,67.7,60.0,-99.9,-99.9,-99.9,0,0,100,0.00,40.00,13,8,0,0.00
2012-9-24,78.0,62.9,54.0,-99.9,-99.9,-99.9,0,0,100,0.00,40.00,15,13,0,0.00
2012-9-25,77.0,67.8,58.0,-99.9,-99.9,-99.9,0,0,100,0.00,40.00,18,12,0,0.00
2012-9-26,78.0,63.6,54.0,-99.9,-99.9,-99.9,0,0,100,0.00,40.00,13,11,0,0.00
2012-9-27,91.0,71.3,54.0,-99.9,-99.9,-99.9,0,0,100,0.00,40.00,11,7,0,0.00
2012-9-28,72.0,61.6,56.0,-99.9,-99.9,-99.9,0,0,100,0.00,40.00,22,14,0,0.00
2012-9-29,84.0,69.0,56.0,-99.9,-99.9,-99.9,0,0,100,0.00,40.00,15,12,0,0.00
2012-9-30,95.0,74.4,57.0,-99.9,-99.9,-99.9,0,0,100,0.00,40.00,13,6,0,0.00
2012-10-1,98.0,84.5,67.0,-99.9,-99.9,-99.9,0,0,100,0.00,40.00,11,4,0,0.00
2012-10-2,98.0,80.6,60.0,-99.9,-99.9,-99.9,0,0,100,0.00,40.00,6,3,0,0.00
2012-10-3,87.0,75.0,63.0,-99.9,-99.9,-99.9,0,0,100,0.00,40.00,15,6,0,0.00
2012-10-4,70.0,66.4,59.0,-99.9,-99.9,-99.9,0,0,100,0.00,40.00,19,16,0,0.00
2012-10-5,72.0,61.3,56.0,-99.9,-99.9,-99.9,0,0,100,0.00,40.00,17,13,0,0.00
2012-10-9,72.0,63.5,59.0,-99.9,-99.9,-99.9,0,0,100,0.00,40.00,9,8,0,0.00
2012-10-10,74.0,66.7,59.0,-99.9,-99.9,-99.9,0,0,100,0.00,40.00,16,12,0,0.00
2012-10-11,58.0,56.1,55.0,-99.9,-99.9,-99.9,0,0,100,0.00,40.00,18,14,0,0.00
2012-10-12,56.0,54.4,52.0,-99.9,-99.9,-99.9,0,0,100,0.00,40.00,8,5,0,0.00
2012-10-13,74.0,68.2,63.0,-99.9,-99.9,-99.9,0,0,100,0.00,40.00,10,7,0,0.00
2012-10-14,75.0,62.2,55.0,-99.9,-99.9,-99.9,0,0,100,0.00,40.00,12,6,0,0.00
2012-10-15,83.0,72.0,61.0,-99.9,-99.9,-99.9,0,0,100,0.00,40.00,9,8,0,0.00
2012-10-16,85.0,72.2,65.0,-99.9,-99.9,-99.9,0,0,100,0.00,40.00,17,11,0,0.00
2012-10-17,87.0,65.8,57.0,-99.9,-99.9,-99.9,0,0,100,0.00,40.00,4,3,0,0.00
2012-10-18,63.0,58.0,55.0,-99.9,-99.9,-99.9,0,0,100,0.00,40.00,3,2,0,0.00
2012-10-19,75.0,75.0,75.0,-99.9,-99.9,-99.9,0,0,100,0.00,40.00,11,11,0,0.00
2012-10-24,56.0,56.0,56.0,-99.9,-99.9,-99.9,0,0,100,0.00,40.00,4,4,0,0.00
2012-10-25,58.0,58.0,58.0,-99.9,-99.9,-99.9,0,0,100,0.00,40.00,4,4,0,0.00
2012-10-26,74.0,71.5,69.0,-99.9,-99.9,-99.9,0,0,100,0.00,40.00,4,4,0,0.00
2012-11-2,54.0,53.5,53.0,-99.9,-99.9,-99.9,0,0,100,0.00,40.00,4,4,0,0.00
2012-11-3,73.0,60.3,54.0,-99.9,-99.9,-99.9,0,0,100,0.00,40.00,4,3,0,0.00
2012-11-4,57.0,57.0,57.0,-99.9,-99.9,-99.9,0,0,100,0.00,40.00,4,4,0,0.00
2012-11-5,80.0,80.0,80.0,-99.9,-99.9,-99.9,0,0,100,0.00,40.00,10,10,0,0.00
2012-11-8,50.0,50.0,50.0,-99.9,-99.9,-99.9,0,0,100,0.00,40.00,14,14,0,0.00
2012-11-9,51.0,51.0,51.0,-99.9,-99.9,-99.9,0,0,100,0.00,40.00,12,12,0,0.00
2012-11-12,58.0,58.0,58.0,-99.9,-99.9,-99.9,0,0,100,0.00,40.00,5,5,0,0.00
2012-11-13,68.0,67.0,66.0,-99.9,-99.9,-99.9,0,0,100,0.00,40.00,6,6,0,0.00
2012-11-14,68.0,56.5,48.0,-99.9,-99.9,-99.9,0,0,100,0.00,40.00,12,4,0,0.00
2012-11-15,55.0,46.1,42.0,-99.9,-99.9,-99.9,0,0,100,0.00,40.00,5,3,0,0.00
2012-11-16,60.0,56.4,52.0,-99.9,-99.9,-99.9,0,0,100,0.00,40.00,9,6,0,0.00
2012-11-18,61.0,61.0,61.0,-99.9,-99.9,-99.9,0,0,100,0.00,40.00,9,9,0,0.00
2012-11-19,65.0,65.0,65.0,-99.9,-99.9,-99.9,0,0,100,0.00,40.00,4,4,0,0.00
2012-11-22,51.0,51.0,51.0,-99.9,-99.9,-99.9,0,0,100,0.00,40.00,5,5,0,0.00
2012-11-25,42.0,42.0,42.0,-99.9,-99.9,-99.9,0,0,100,0.00,40.00,1,1,0,0.00
2012-11-27,50.0,49.0,48.0,-99.9,-99.9,-99.9,0,0,100,0.00,40.00,4,2,0,0.00
2012-11-29,58.0,58.0,58.0,-99.9,-99.9,-99.9,0,0,100,0.00,40.00,2,2,0,0.00
2012-12-1,57.0,57.0,57.0,-99.9,-99.9,-99.9,0,0,100,0.00,40.00,5,5,0,0.00
2012-12-2,57.0,57.0,57.0,-99.9,-99.9,-99.9,0,0,100,0.00,40.00,17,17,0,0.00